Time;durP1;ratioP1;P1;durP2;ratioP2;P2;SDS_P1;SDS_P2;PMS_P1;PMS_P2;Temp;Humidity;BMP_temperature;BMP_pressure;BME280_temperature;BME280_humidity;BME280_pressure;Samples;Min_cycle;Max_cycle;Signal;HPM_P1;HPM_P2
2022/08/24 00:01:10;;;;;;;3.30;2.17;;;25.20;63.40;;;;;;5010883;27;92432;-81
2022/08/24 00:03:37;;;;;;;2.65;1.83;;;25.20;63.10;;;;;;5011336;27;93320;-81
2022/08/24 00:06:06;;;;;;;3.05;2.20;;;25.20;63.10;;;;;;5011722;28;92578;-81
2022/08/24 00:08:32;;;;;;;3.03;2.05;;;25.20;63.20;;;;;;5010630;28;92060;-81
2022/08/24 00:10:58;;;;;;;2.72;2.10;;;25.20;63.10;;;;;;5011566;27;92213;-81
2022/08/24 00:13:24;;;;;;;3.10;2.10;;;25.20;63.00;;;;;;5010538;28;93491;-81
2022/08/24 00:15:50;;;;;;;2.65;1.80;;;25.20;63.20;;;;;;5010672;27;92977;-81
2022/08/24 00:18:17;;;;;;;2.38;1.77;;;25.20;63.20;;;;;;5011681;27;92347;-81
2022/08/24 00:20:43;;;;;;;2.65;2.17;;;25.20;63.10;;;;;;5011163;28;94255;-80
2022/08/24 00:23:09;;;;;;;3.88;2.10;;;25.20;63.10;;;;;;5010904;27;94021;-82
2022/08/24 00:25:35;;;;;;;2.38;1.67;;;25.20;63.10;;;;;;5009506;28;97390;-80
2022/08/24 00:28:03;;;;;;;3.17;2.00;;;25.20;63.10;;;;;;5011583;28;92438;-80
2022/08/24 00:30:29;;;;;;;2.33;1.92;;;25.20;63.30;;;;;;5009316;28;93545;-83
2022/08/24 00:32:55;;;;;;;2.40;1.70;;;25.20;63.00;;;;;;5011540;28;93682;-81
2022/08/24 00:35:21;;;;;;;3.10;2.00;;;25.20;63.10;;;;;;5009572;28;95273;-81
2022/08/24 00:37:49;;;;;;;1.95;1.67;;;25.20;63.10;;;;;;5011450;27;92356;-81
2022/08/24 00:40:32;;;;;;;4.00;2.25;;;25.20;63.30;;;;;;5010850;28;91373;-81
2022/08/24 00:43:02;;;;;;;2.38;1.83;;;25.20;63.10;;;;;;5004261;28;92578;-81
2022/08/24 00:45:33;;;;;;;2.45;1.92;;;25.20;63.20;;;;;;5014329;27;92439;-82
2022/08/24 00:48:04;;;;;;;2.30;2.10;;;25.20;63.20;;;;;;5011111;28;92886;-81
2022/08/24 00:50:44;;;;;;;1.75;1.60;;;25.20;63.20;;;;;;5011527;28;92621;-82
2022/08/24 00:53:23;;;;;;;3.03;1.70;;;25.20;63.20;;;;;;5010478;27;92675;-81
2022/08/24 00:55:54;;;;;;;2.33;1.98;;;25.20;63.20;;;;;;5010495;27;93017;-81
2022/08/24 00:58:26;;;;;;;2.63;1.73;;;25.20;63.10;;;;;;5010868;28;92371;-82
2022/08/24 01:00:58;;;;;;;2.67;1.73;;;25.20;63.10;;;;;;5010000;27;92331;-81
2022/08/24 01:03:26;;;;;;;2.97;1.90;;;25.20;63.10;;;;;;5009503;27;95319;-82
2022/08/24 01:05:53;;;;;;;2.40;1.90;;;25.20;63.00;;;;;;5011860;28;92855;-81
2022/08/24 01:08:22;;;;;;;2.50;2.03;;;25.10;63.10;;;;;;5008757;28;92477;-81
2022/08/24 01:10:55;;;;;;;2.38;1.65;;;25.10;63.10;;;;;;5010061;28;92647;-81
2022/08/24 01:13:23;;;;;;;3.03;2.45;;;25.10;63.00;;;;;;5009090;27;93749;-81
2022/08/24 01:15:52;;;;;;;2.78;1.67;;;25.10;62.90;;;;;;5009468;27;94659;-81
2022/08/24 01:21:22;;;;;;;3.60;1.98;;;25.10;63.10;;;;;;5012528;28;92677;-81
2022/08/24 01:23:54;;;;;;;3.00;1.83;;;25.10;63.00;;;;;;5010226;28;96969;-81
2022/08/24 01:26:36;;;;;;;1.63;1.50;;;25.10;63.00;;;;;;5009306;28;93663;-81
2022/08/24 01:29:09;;;;;;;2.92;2.28;;;25.10;63.00;;;;;;5009626;28;92132;-81
2022/08/24 01:31:35;;;;;;;2.60;1.90;;;25.10;63.00;;;;;;5010516;27;91419;-81
2022/08/24 01:34:01;;;;;;;2.50;2.00;;;25.10;63.00;;;;;;5008911;28;93146;-81
2022/08/24 01:36:34;;;;;;;2.00;1.70;;;25.10;63.10;;;;;;5009716;28;92629;-81
2022/08/24 01:39:10;;;;;;;2.00;1.40;;;25.10;63.10;;;;;;5010205;28;93210;-81
2022/08/24 01:41:36;;;;;;;2.78;1.67;;;25.10;63.20;;;;;;5010035;28;92218;-81
2022/08/24 01:44:03;;;;;;;2.40;1.77;;;25.10;63.00;;;;;;5009598;28;92395;-81
2022/08/24 01:46:29;;;;;;;3.03;2.10;;;25.10;62.90;;;;;;5008617;28;93619;-81
2022/08/24 01:48:56;;;;;;;1.90;1.70;;;25.10;63.10;;;;;;5009834;27;92646;-81
2022/08/24 01:51:23;;;;;;;2.13;1.60;;;25.10;63.10;;;;;;5009730;28;92588;-81
2022/08/24 01:53:49;;;;;;;1.73;1.42;;;25.10;63.10;;;;;;5009299;28;94478;-81
2022/08/24 01:56:15;;;;;;;2.33;1.70;;;25.10;63.00;;;;;;5008588;28;92858;-81
2022/08/24 01:58:46;;;;;;;2.42;1.65;;;25.10;62.90;;;;;;5010463;28;92453;-82
2022/08/24 02:01:13;;;;;;;2.25;1.80;;;25.10;62.80;;;;;;5008910;27;93788;-81
2022/08/24 02:03:39;;;;;;;2.88;2.08;;;25.10;63.00;;;;;;5009194;28;94982;-81
2022/08/24 02:06:05;;;;;;;2.40;1.90;;;25.10;63.00;;;;;;5010153;28;93736;-81
2022/08/24 02:08:33;;;;;;;2.53;1.60;;;25.10;63.10;;;;;;5007832;28;92397;-81
2022/08/24 02:10:58;;;;;;;2.17;1.65;;;25.00;62.90;;;;;;5009026;28;92534;-81
2022/08/24 02:13:25;;;;;;;2.47;1.80;;;25.10;62.90;;;;;;5009382;28;94066;-81
2022/08/24 02:15:51;;;;;;;2.20;1.88;;;25.10;63.00;;;;;;5008966;27;94648;-81
2022/08/24 02:18:16;;;;;;;2.42;1.95;;;25.10;62.90;;;;;;5009425;28;92245;-81
2022/08/24 02:20:44;;;;;;;2.17;1.85;;;25.00;63.10;;;;;;5008911;28;91296;-82
2022/08/24 02:23:09;;;;;;;2.72;1.95;;;25.00;62.80;;;;;;5009737;28;93545;-81
2022/08/24 02:25:35;;;;;;;2.22;1.50;;;25.00;62.80;;;;;;5009398;28;92274;-80
2022/08/24 02:28:01;;;;;;;2.55;1.50;;;25.00;62.90;;;;;;5009454;28;93457;-81
2022/08/24 02:30:28;;;;;;;1.95;1.60;;;25.00;62.90;;;;;;5009512;27;92556;-81
2022/08/24 02:32:53;;;;;;;1.63;1.40;;;25.00;63.00;;;;;;5009689;28;93602;-80
2022/08/24 02:35:20;;;;;;;4.35;2.00;;;25.00;62.90;;;;;;5009315;28;92337;-81
2022/08/24 02:37:45;;;;;;;1.88;1.60;;;25.00;62.90;;;;;;5009198;27;92464;-81
2022/08/24 02:40:12;;;;;;;2.28;1.83;;;25.00;62.80;;;;;;5009838;28;92499;-81
2022/08/24 02:42:38;;;;;;;2.33;1.52;;;25.00;62.80;;;;;;5009012;27;94042;-81
2022/08/24 02:45:04;;;;;;;2.05;1.75;;;25.00;63.00;;;;;;5010158;28;92142;-81
2022/08/24 02:47:31;;;;;;;1.92;1.48;;;25.00;63.00;;;;;;5009379;28;92395;-81
2022/08/24 02:49:56;;;;;;;1.60;1.45;;;25.00;62.90;;;;;;5009438;27;92650;-81
2022/08/24 02:52:23;;;;;;;2.03;1.50;;;25.00;62.90;;;;;;5009148;28;94237;-81
2022/08/24 02:54:49;;;;;;;2.60;1.60;;;25.00;62.90;;;;;;5008061;28;94238;-81
2022/08/24 02:57:14;;;;;;;2.28;1.60;;;25.00;62.80;;;;;;5008685;27;92917;-81
2022/08/24 02:59:40;;;;;;;1.95;1.70;;;25.00;63.00;;;;;;5010139;28;92018;-81
2022/08/24 03:02:05;;;;;;;2.17;1.77;;;25.00;62.90;;;;;;5009364;28;93053;-81
2022/08/24 03:04:31;;;;;;;1.75;1.50;;;25.00;63.00;;;;;;5011349;27;92860;-81
2022/08/24 03:06:57;;;;;;;2.08;1.58;;;25.00;62.80;;;;;;5012936;28;91990;-80
2022/08/24 03:09:22;;;;;;;2.83;1.75;;;25.00;63.00;;;;;;5012190;27;91352;-81
2022/08/24 03:11:48;;;;;;;4.10;1.65;;;25.00;63.50;;;;;;5011855;28;93246;-81
2022/08/24 03:14:14;;;;;;;1.60;1.50;;;25.00;62.90;;;;;;5011965;28;92642;-80
2022/08/24 03:16:39;;;;;;;1.83;1.50;;;25.00;63.00;;;;;;5011979;27;93014;-81
2022/08/24 03:19:05;;;;;;;2.05;1.50;;;25.00;62.80;;;;;;5011881;28;92530;-81
2022/08/24 03:21:32;;;;;;;2.17;1.42;;;25.00;62.70;;;;;;5012124;27;93917;-81
2022/08/24 03:23:57;;;;;;;1.83;1.40;;;24.90;62.60;;;;;;5013159;28;93519;-81
2022/08/24 03:26:23;;;;;;;3.00;1.73;;;25.00;62.80;;;;;;5011674;27;92432;-81
2022/08/24 03:28:49;;;;;;;2.05;1.48;;;24.90;62.80;;;;;;5012217;28;93402;-81
2022/08/24 03:31:15;;;;;;;2.08;1.38;;;25.00;62.70;;;;;;5011228;28;94330;-81
2022/08/24 03:33:41;;;;;;;2.35;1.50;;;24.90;62.80;;;;;;5011896;28;93200;-82
2022/08/24 03:36:07;;;;;;;1.52;1.40;;;24.90;62.60;;;;;;5012753;28;92048;-81
2022/08/24 03:38:33;;;;;;;2.33;1.60;;;24.90;62.70;;;;;;5012054;27;92707;-81
2022/08/24 03:40:58;;;;;;;2.03;1.42;;;24.90;62.60;;;;;;5011059;28;94538;-81
2022/08/24 03:46:10;;;;;;;1.60;1.50;;;24.90;62.80;;;;;;5011906;28;91996;-81
2022/08/24 03:48:36;;;;;;;1.63;1.45;;;24.90;62.50;;;;;;5010874;27;92456;-81
2022/08/24 03:51:02;;;;;;;1.80;1.60;;;24.90;62.60;;;;;;5012585;28;93855;-81
2022/08/24 03:53:27;;;;;;;1.77;1.40;;;24.90;62.50;;;;;;5013644;27;93027;-81
2022/08/24 03:55:53;;;;;;;2.60;1.98;;;24.90;62.60;;;;;;5010682;28;92177;-81
2022/08/24 03:58:18;;;;;;;1.98;1.40;;;24.90;62.50;;;;;;5011907;28;91538;-81
2022/08/24 04:00:44;;;;;;;1.83;1.40;;;24.90;62.60;;;;;;5011659;28;92561;-81
2022/08/24 04:03:11;;;;;;;1.65;1.45;;;24.90;62.70;;;;;;5011198;27;93837;-81
2022/08/24 04:05:37;;;;;;;1.50;1.27;;;24.90;62.70;;;;;;5012159;28;93484;-81
2022/08/24 04:08:04;;;;;;;3.15;1.77;;;24.90;62.80;;;;;;5009303;28;92503;-81
2022/08/24 04:10:30;;;;;;;1.40;1.30;;;24.90;62.80;;;;;;5010840;27;94323;-81
2022/08/24 04:12:56;;;;;;;1.90;1.38;;;24.90;62.70;;;;;;5011380;28;92431;-81
2022/08/24 04:15:23;;;;;;;1.30;1.20;;;24.90;62.70;;;;;;5010292;28;92023;-81
2022/08/24 04:17:50;;;;;;;1.88;1.60;;;24.90;62.60;;;;;;4992326;28;92813;-81
2022/08/24 04:20:16;;;;;;;1.40;1.30;;;24.90;62.80;;;;;;5009789;28;93659;-81
2022/08/24 04:22:42;;;;;;;1.20;1.10;;;24.90;62.70;;;;;;5009554;28;94402;-81
2022/08/24 04:25:09;;;;;;;2.05;1.80;;;24.90;62.70;;;;;;5011092;27;92471;-81
2022/08/24 04:27:34;;;;;;;2.13;1.70;;;24.90;62.60;;;;;;5010371;27;92665;-82
2022/08/24 04:30:00;;;;;;;2.17;1.75;;;24.90;62.60;;;;;;5011668;28;93630;-81
2022/08/24 04:32:25;;;;;;;2.38;1.73;;;24.90;62.90;;;;;;5010743;27;92505;-82
2022/08/24 04:34:51;;;;;;;1.63;1.50;;;24.90;62.60;;;;;;5011651;28;92233;-81
2022/08/24 04:37:17;;;;;;;1.23;1.02;;;24.90;62.70;;;;;;5010632;27;92596;-81
2022/08/24 04:39:43;;;;;;;1.88;1.52;;;24.90;62.60;;;;;;5009758;27;93719;-81
2022/08/24 04:42:09;;;;;;;1.63;1.42;;;24.80;62.60;;;;;;5011306;27;93503;-81
2022/08/24 04:44:35;;;;;;;2.10;1.52;;;24.80;62.50;;;;;;5009002;28;92491;-82
2022/08/24 04:47:01;;;;;;;1.92;1.50;;;24.80;62.60;;;;;;5010794;28;91889;-81
2022/08/24 04:49:26;;;;;;;2.28;1.50;;;24.80;62.60;;;;;;5010412;27;93784;-81
2022/08/24 04:51:52;;;;;;;2.22;1.88;;;24.80;62.70;;;;;;5010892;28;92861;-80
2022/08/24 04:54:18;;;;;;;2.17;1.58;;;24.80;62.60;;;;;;5012673;27;93241;-81
2022/08/24 04:56:43;;;;;;;2.38;1.77;;;24.90;62.60;;;;;;5010901;28;92528;-81
2022/08/24 04:59:09;;;;;;;1.63;1.52;;;24.80;62.40;;;;;;5011905;28;93219;-81
2022/08/24 05:01:35;;;;;;;1.60;1.50;;;24.80;62.50;;;;;;5009299;27;92759;-81
2022/08/24 05:04:01;;;;;;;1.42;1.30;;;24.80;62.40;;;;;;5009037;28;91990;-81
2022/08/24 05:06:29;;;;;;;4.72;1.90;;;24.80;62.30;;;;;;5008526;27;91977;-81
2022/08/24 05:08:55;;;;;;;2.08;1.50;;;24.80;62.40;;;;;;5010112;28;93624;-81
2022/08/24 05:11:22;;;;;;;2.50;1.77;;;24.90;62.50;;;;;;5009844;27;93370;-81
2022/08/24 05:13:51;;;;;;;1.38;1.27;;;24.80;62.30;;;;;;5010768;28;92272;-81
2022/08/24 05:16:18;;;;;;;1.70;1.30;;;24.90;62.30;;;;;;5009782;27;92472;-81
2022/08/24 05:18:44;;;;;;;1.77;1.48;;;24.90;62.30;;;;;;5009018;28;94265;-81
2022/08/24 05:21:13;;;;;;;1.88;1.58;;;24.90;62.30;;;;;;5009842;27;94548;-81
2022/08/24 05:23:39;;;;;;;1.65;1.55;;;24.90;62.40;;;;;;5011632;28;92566;-81
2022/08/24 05:26:11;;;;;;;1.50;1.40;;;24.90;62.20;;;;;;5009591;28;92652;-81
2022/08/24 05:28:38;;;;;;;1.58;1.40;;;25.00;63.00;;;;;;5010026;27;93753;-81
2022/08/24 05:31:24;;;;;;;1.75;1.30;;;25.00;62.20;;;;;;5010028;27;93324;-81
2022/08/24 05:33:50;;;;;;;1.83;1.40;;;25.00;62.00;;;;;;5011032;28;92019;-81
2022/08/24 05:36:25;;;;;;;1.33;1.17;;;25.10;62.10;;;;;;5010510;27;92059;-83
2022/08/24 05:38:53;;;;;;;12.20;2.35;;;25.10;61.00;;;;;;5011908;28;93504;-83
2022/08/24 05:41:19;;;;;;;12.00;2.60;;;25.20;59.00;;;;;;5010290;28;99755;-80
2022/08/24 05:43:45;;;;;;;21.88;2.65;;;25.20;57.80;;;;;;5007920;28;93516;-80
2022/08/24 05:46:12;;;;;;;9.80;3.00;;;25.20;57.20;;;;;;5006850;28;92095;-79
2022/08/24 05:48:38;;;;;;;7.43;3.00;;;25.10;57.20;;;;;;5007942;28;94059;-80
2022/08/24 05:51:05;;;;;;;8.30;3.22;;;25.10;57.30;;;;;;5010164;28;92671;-79
2022/08/24 05:53:31;;;;;;;8.02;3.25;;;25.00;57.50;;;;;;5007967;28;92730;-79
2022/08/24 05:55:56;;;;;;;9.85;3.13;;;25.00;57.60;;;;;;5006076;27;92347;-78
2022/08/24 05:58:22;;;;;;;11.98;3.05;;;25.00;57.40;;;;;;5006107;28;93256;-78
2022/08/24 06:00:49;;;;;;;13.30;3.30;;;25.00;57.40;;;;;;5006890;27;92133;-80
2022/08/24 06:03:15;;;;;;;65.25;12.13;;;25.00;57.70;;;;;;5006016;28;92506;-79
2022/08/24 06:05:42;;;;;;;67.00;11.07;;;25.00;58.00;;;;;;5006301;28;92534;-79
2022/08/24 06:08:08;;;;;;;35.85;7.75;;;24.90;57.90;;;;;;5003916;28;97915;-79
2022/08/24 06:10:46;;;;;;;31.35;6.28;;;25.00;58.50;;;;;;5008215;28;93707;-81
2022/08/24 06:13:13;;;;;;;19.45;6.60;;;25.00;59.50;;;;;;5007447;28;92538;-80
2022/08/24 06:15:40;;;;;;;29.77;6.25;;;25.00;59.50;;;;;;5006302;28;92287;-80
2022/08/24 06:18:07;;;;;;;23.55;5.28;;;24.90;59.50;;;;;;5008112;28;93639;-80
2022/08/24 06:20:38;;;;;;;21.02;5.22;;;25.00;59.90;;;;;;5006650;27;93224;-80
2022/08/24 06:23:04;;;;;;;18.73;4.75;;;24.90;59.90;;;;;;5006881;27;92264;-80
2022/08/24 06:28:14;;;;;;;14.23;3.92;;;24.90;59.90;;;;;;5006021;28;92394;-79
2022/08/24 06:30:41;;;;;;;10.38;3.40;;;24.90;59.70;;;;;;5005695;28;93765;-79
2022/08/24 06:33:07;;;;;;;8.73;3.38;;;25.00;59.30;;;;;;5004552;28;92906;-79
2022/08/24 06:35:33;;;;;;;7.15;3.08;;;24.90;59.40;;;;;;5006466;28;92367;-79
2022/08/24 06:37:59;;;;;;;9.93;4.25;;;25.00;59.60;;;;;;5006552;28;92649;-80
2022/08/24 06:40:25;;;;;;;12.00;4.65;;;25.00;60.20;;;;;;5009031;27;93754;-79
2022/08/24 06:42:51;;;;;;;9.15;4.68;;;25.00;60.50;;;;;;5010125;28;92365;-80
2022/08/24 06:45:17;;;;;;;12.52;5.20;;;25.00;60.90;;;;;;5009419;27;92529;-81
2022/08/24 06:47:43;;;;;;;10.30;4.82;;;25.00;61.20;;;;;;5011400;28;93548;-81
2022/08/24 06:50:08;;;;;;;10.88;4.88;;;25.00;61.50;;;;;;5010673;27;92318;-87
2022/08/24 06:52:35;;;;;;;15.23;4.63;;;24.90;61.80;;;;;;5015661;27;91996;-83
2022/08/24 06:55:04;;;;;;;9.23;4.40;;;25.00;61.80;;;;;;5013322;27;92273;-82
2022/08/24 06:57:30;;;;;;;;;;;25.00;61.90;;;;;;5014413;28;94139;-88
2022/08/24 06:59:56;;;;;;;10.88;4.18;;;25.00;61.80;;;;;;5015288;28;93712;-89
2022/08/24 07:02:22;;;;;;;20.20;5.00;;;25.00;61.60;;;;;;5012871;28;92588;-89
2022/08/24 07:04:47;;;;;;;21.75;5.88;;;25.00;61.60;;;;;;5014142;28;91937;-91
2022/08/24 07:07:14;;;;;;;13.32;5.57;;;25.00;61.60;;;;;;5012732;28;95948;-87
2022/08/24 07:09:40;;;;;;;18.23;5.25;;;25.00;61.70;;;;;;5014084;27;93080;-90
2022/08/24 07:12:06;;;;;;;16.45;5.00;;;25.10;61.70;;;;;;5015549;28;92469;-88
2022/08/24 07:14:32;;;;;;;22.60;5.15;;;25.10;61.90;;;;;;5013698;28;91350;-90
2022/08/24 07:16:57;;;;;;;13.50;4.90;;;25.10;61.90;;;;;;4970290;27;94465;-89
2022/08/24 07:19:24;;;;;;;18.23;4.95;;;25.10;62.30;;;;;;5020685;27;93297;-89
2022/08/24 07:21:50;;;;;;;15.43;4.63;;;25.10;62.30;;;;;;5007101;28;93276;-87
2022/08/24 07:24:16;;;;;;;18.23;4.88;;;25.20;62.30;;;;;;5008886;28;92549;-87
2022/08/24 07:26:41;;;;;;;11.15;4.05;;;25.30;62.10;;;;;;5011427;28;92762;-88
2022/08/24 07:29:14;;;;;;;18.98;4.35;;;25.30;62.00;;;;;;5009284;27;92791;-87
2022/08/24 07:31:41;;;;;;;11.70;4.28;;;25.30;61.90;;;;;;5009996;27;92510;-87
2022/08/24 07:34:09;;;;;;;15.52;3.60;;;25.30;61.80;;;;;;5009128;28;92675;-86
2022/08/24 07:36:36;;;;;;;20.08;4.85;;;25.30;61.90;;;;;;5008987;27;93307;-87
2022/08/24 07:39:04;;;;;;;19.00;4.38;;;25.30;61.90;;;;;;5010713;28;93870;-86
2022/08/24 07:41:30;;;;;;;8.73;3.92;;;25.30;61.90;;;;;;5010234;28;92965;-87
2022/08/24 07:43:56;;;;;;;17.60;4.10;;;25.40;62.00;;;;;;5009692;27;92284;-86
2022/08/24 07:46:22;;;;;;;9.82;3.67;;;25.50;62.10;;;;;;5008618;28;93951;-87
2022/08/24 07:48:49;;;;;;;11.73;3.95;;;25.70;61.90;;;;;;5008777;27;94668;-88
2022/08/24 07:51:18;;;;;;;11.52;4.00;;;25.80;61.60;;;;;;5009399;28;92456;-87
2022/08/24 07:53:44;;;;;;;16.08;3.65;;;25.90;61.90;;;;;;5012792;28;92469;-86
2022/08/24 07:56:10;;;;;;;11.65;3.72;;;25.90;61.50;;;;;;5010060;28;92975;-86
2022/08/24 07:58:36;;;;;;;12.55;3.83;;;25.90;61.60;;;;;;5009962;28;92855;-86
2022/08/24 08:01:03;;;;;;;10.10;3.00;;;26.00;61.40;;;;;;5008924;28;92667;-87
2022/08/24 08:03:32;;;;;;;8.85;3.33;;;26.10;61.20;;;;;;5009877;27;91736;-86
2022/08/24 08:06:00;;;;;;;11.23;3.80;;;26.10;61.30;;;;;;5015033;28;91945;-86
2022/08/24 08:08:26;;;;;;;10.20;3.35;;;26.10;61.50;;;;;;5011876;27;93416;-87
2022/08/24 08:10:52;;;;;;;6.65;3.13;;;26.10;61.30;;;;;;5011746;27;92998;-85
2022/08/24 08:13:18;;;;;;;8.80;3.80;;;26.10;61.20;;;;;;5018052;28;92049;-85
2022/08/24 08:15:44;;;;;;;7.68;3.22;;;26.10;61.10;;;;;;5014843;27;94485;-87
2022/08/24 08:18:11;;;;;;;12.13;3.75;;;26.10;60.80;;;;;;5012771;28;93398;-84
2022/08/24 08:20:38;;;;;;;9.48;3.20;;;26.20;60.80;;;;;;5014899;28;92543;-87
2022/08/24 08:25:51;;;;;;;8.40;2.97;;;26.20;60.70;;;;;;5014972;28;97090;-83
2022/08/24 08:28:18;;;;;;;11.63;3.10;;;26.30;60.60;;;;;;5015362;28;95912;-85
2022/08/24 08:30:44;;;;;;;10.57;3.15;;;26.20;60.30;;;;;;5016505;27;92526;-84
2022/08/24 08:33:11;;;;;;;11.70;3.10;;;26.30;60.50;;;;;;5015362;27;92123;-86
2022/08/24 08:35:37;;;;;;;10.27;3.38;;;26.30;60.40;;;;;;5006895;27;95040;-85
2022/08/24 08:38:03;;;;;;;12.13;3.10;;;26.30;60.40;;;;;;5014394;28;93247;-85
2022/08/24 08:40:44;;;;;;;14.00;3.25;;;26.40;59.70;;;;;;5016258;28;92338;-87
2022/08/24 08:44:04;;;;;;;20.42;3.63;;;26.40;59.90;;;;;;5014545;28;91997;-85
2022/08/24 08:46:32;;;;;;;20.30;3.85;;;26.30;60.20;;;;;;5014377;28;95569;-85
2022/08/24 08:49:09;;;;;;;21.73;3.72;;;26.20;60.10;;;;;;5014093;28;97016;-86
2022/08/24 08:51:51;;;;;;;16.52;3.55;;;26.20;60.10;;;;;;5014475;28;92215;-87
2022/08/24 08:54:19;;;;;;;18.08;3.67;;;26.20;60.80;;;;;;5015830;28;91456;-86
2022/08/24 08:56:55;;;;;;;15.80;3.67;;;26.30;60.60;;;;;;5013239;28;93615;-83
2022/08/24 09:00:00;;;;;;;17.05;3.40;;;26.40;60.50;;;;;;5013164;28;92274;-84
2022/08/24 09:02:55;;;;;;;16.70;3.33;;;26.50;60.80;;;;;;5010922;28;92969;-81
2022/08/24 09:05:33;;;;;;;10.13;2.97;;;26.50;60.40;;;;;;5002725;28;92226;-81
2022/08/24 09:08:18;;;;;;;29.73;3.35;;;26.50;60.60;;;;;;4987556;28;95920;-81
2022/08/24 09:10:53;;;;;;;12.57;3.10;;;26.50;60.70;;;;;;5002903;28;96456;-86
2022/08/24 09:13:52;;;;;;;14.68;3.15;;;26.50;60.90;;;;;;5004432;28;92783;-86
2022/08/24 09:16:20;;;;;;;14.50;3.03;;;26.60;61.40;;;;;;5004507;28;92271;-86
2022/08/24 09:18:53;;;;;;;9.10;3.07;;;26.60;61.40;;;;;;5006393;28;93998;-86
2022/08/24 09:22:00;;;;;;;17.42;4.00;;;26.60;61.40;;;;;;5006229;28;93238;-86
2022/08/24 09:24:51;;;;;;;11.98;3.28;;;26.60;61.40;;;;;;5002507;28;92413;-86
2022/08/24 09:27:42;;;;;;;7.93;3.40;;;26.60;61.50;;;;;;5003332;28;92104;-86
2022/08/24 09:30:26;;;;;;;12.98;3.53;;;26.60;61.60;;;;;;5001847;28;94417;-86
2022/08/24 09:33:09;;;;;;;15.18;3.88;;;26.70;61.60;;;;;;5003525;28;93898;-86
2022/08/24 09:35:50;;;;;;;8.07;2.92;;;26.60;61.60;;;;;;5005323;28;92257;-88
2022/08/24 09:38:43;;;;;;;11.70;3.30;;;26.70;61.50;;;;;;5010010;28;92134;-87
2022/08/24 09:41:38;;;;;;;11.38;2.97;;;26.70;61.40;;;;;;4998443;28;96946;-88
2022/08/24 09:44:29;;;;;;;8.15;2.80;;;26.60;61.20;;;;;;5007018;28;97249;-87
2022/08/24 09:46:58;;;;;;;9.10;2.67;;;26.60;61.10;;;;;;5006360;28;92659;-87
2022/08/24 09:49:57;;;;;;;13.95;3.80;;;26.60;61.30;;;;;;4997071;28;91840;-87
2022/08/24 09:52:34;;;;;;;11.35;3.63;;;26.70;61.50;;;;;;5008567;28;95473;-86
2022/08/24 09:55:10;;;;;;;12.43;3.58;;;26.70;61.20;;;;;;4989156;28;95988;-87
2022/08/24 09:57:51;;;;;;;7.03;3.35;;;26.70;61.40;;;;;;5001485;28;94070;-87
2022/08/24 10:00:29;;;;;;;9.57;2.88;;;26.70;61.40;;;;;;5009357;28;92146;-87
2022/08/24 10:03:03;;;;;;;7.15;3.20;;;26.70;61.50;;;;;;5009229;28;96707;-86
2022/08/24 10:05:33;;;;;;;8.77;3.25;;;26.70;61.70;;;;;;5012155;27;92849;-86
2022/08/24 10:08:03;;;;;;;10.02;3.25;;;26.80;61.90;;;;;;5012059;28;92498;-86
2022/08/24 10:10:47;;;;;;;13.50;2.92;;;26.70;61.80;;;;;;5010632;28;92114;-86
2022/08/24 10:13:38;;;;;;;7.28;2.90;;;26.80;61.90;;;;;;5010953;28;92597;-86
2022/08/24 10:16:35;;;;;;;9.45;2.95;;;26.80;61.90;;;;;;5013974;28;91496;-86
2022/08/24 10:19:31;;;;;;;11.13;3.42;;;26.80;61.90;;;;;;5014758;27;92141;-87
2022/08/24 10:22:28;;;;;;;10.00;3.35;;;26.80;61.80;;;;;;5018204;27;92645;-87
2022/08/24 10:25:26;;;;;;;12.80;3.20;;;26.80;61.90;;;;;;5017783;28;94737;-86
2022/08/24 10:28:07;;;;;;;16.95;3.67;;;26.80;62.20;;;;;;5013526;27;99939;-88
2022/08/24 10:30:49;;;;;;;8.18;2.95;;;26.90;62.60;;;;;;4998516;28;92482;-87
2022/08/24 10:33:25;;;;;;;8.50;3.08;;;26.80;62.70;;;;;;5007116;28;92364;-88
2022/08/24 10:36:09;;;;;;;16.95;3.42;;;26.90;62.90;;;;;;5019281;27;92316;-87
2022/08/24 10:42:00;;;;;;;15.80;3.30;;;26.90;63.50;;;;;;5018264;28;93935;-86
2022/08/24 10:44:39;;;;;;;11.90;3.35;;;26.90;62.40;;;;;;5019532;28;91610;-86
2022/08/24 10:47:27;;;;;;;9.55;4.15;;;26.90;62.40;;;;;;5018428;28;93638;-86
2022/08/24 10:50:23;;;;;;;9.85;4.03;;;26.90;62.70;;;;;;5017703;28;98082;-88
2022/08/24 10:52:49;;;;;;;12.90;4.25;;;26.90;63.10;;;;;;5017516;28;93571;-87
2022/08/24 10:55:19;;;;;;;7.55;3.35;;;26.90;63.40;;;;;;5017512;28;92688;-87
2022/08/24 10:58:03;;;;;;;10.82;3.85;;;27.00;63.40;;;;;;5017533;28;92677;-87
2022/08/24 11:00:29;;;;;;;8.25;3.53;;;27.00;63.30;;;;;;5015967;27;92678;-88
2022/08/24 11:03:18;;;;;;;6.63;3.30;;;27.00;63.00;;;;;;5018482;28;92613;-87
2022/08/24 11:05:48;;;;;;;7.28;3.17;;;27.00;62.50;;;;;;5017302;28;91879;-87
2022/08/24 11:08:23;;;;;;;11.85;2.90;;;27.00;62.80;;;;;;5018090;28;93675;-88
2022/08/24 11:11:22;;;;;;;12.27;3.72;;;27.00;62.90;;;;;;5016121;28;97461;-86
2022/08/24 11:13:57;;;;;;;11.00;3.13;;;27.00;62.90;;;;;;5002860;28;92284;-87
2022/08/24 11:16:28;;;;;;;9.75;3.25;;;27.00;62.90;;;;;;5004520;28;92414;-86
2022/08/24 11:18:56;;;;;;;6.13;2.80;;;27.10;62.60;;;;;;5002366;28;93227;-87
2022/08/24 11:21:36;;;;;;;13.38;2.97;;;27.10;62.60;;;;;;5003845;28;94914;-84
2022/08/24 11:24:06;;;;;;;8.82;3.25;;;27.10;62.60;;;;;;5002030;28;92582;-86
2022/08/24 11:26:50;;;;;;;14.35;2.65;;;27.10;62.60;;;;;;5002658;28;92614;-85
2022/08/24 11:29:16;;;;;;;11.57;3.20;;;27.10;62.70;;;;;;5004553;28;93257;-86
2022/08/24 11:31:46;;;;;;;9.68;2.70;;;27.10;62.60;;;;;;5000984;28;93195;-87
2022/08/24 11:34:17;;;;;;;9.93;2.88;;;27.10;62.60;;;;;;5002760;28;92987;-88
2022/08/24 11:36:43;;;;;;;8.30;2.97;;;27.10;62.90;;;;;;5001849;28;92112;-89
2022/08/24 11:39:22;;;;;;;7.82;2.70;;;27.10;62.80;;;;;;5003321;28;93558;-88
2022/08/24 11:42:06;;;;;;;9.57;2.50;;;27.20;63.10;;;;;;5003953;28;93899;-88
2022/08/24 11:44:51;;;;;;;7.22;2.65;;;27.10;63.30;;;;;;5003151;28;93460;-87
2022/08/24 11:47:43;;;;;;;8.68;3.28;;;27.20;63.30;;;;;;5006340;28;92048;-87
2022/08/24 11:50:39;;;;;;;6.15;3.10;;;27.20;63.40;;;;;;5010396;28;97542;-88
2022/08/24 11:53:22;;;;;;;10.35;3.30;;;27.20;63.40;;;;;;5018502;28;95534;-86
2022/08/24 11:55:51;;;;;;;8.95;2.88;;;27.20;63.50;;;;;;5018190;28;92374;-87
2022/08/24 11:58:25;;;;;;;7.47;2.67;;;27.20;63.40;;;;;;5018538;27;92056;-88
2022/08/24 12:01:01;;;;;;;9.57;2.88;;;27.20;63.30;;;;;;5017921;27;93520;-86
2022/08/24 12:03:40;;;;;;;11.60;3.22;;;27.20;63.20;;;;;;5017585;27;92992;-87
2022/08/24 12:06:26;;;;;;;5.35;2.88;;;27.20;63.40;;;;;;5019279;27;91846;-88
2022/08/24 12:08:56;;;;;;;10.10;2.97;;;27.20;62.40;;;;;;5011039;28;92213;-87
2022/08/24 12:11:42;;;;;;;7.82;2.88;;;26.90;59.70;;;;;;5015442;28;95299;-86
2022/08/24 12:14:25;;;;;;;7.60;3.13;;;26.70;58.50;;;;;;5018317;28;94431;-87
2022/08/24 12:17:15;;;;;;;7.25;3.08;;;26.50;57.60;;;;;;5016337;28;91975;-87
2022/08/24 12:19:51;;;;;;;9.18;3.08;;;26.10;56.80;;;;;;5006288;28;92738;-87
2022/08/24 12:22:19;;;;;;;12.02;3.38;;;25.90;57.00;;;;;;5006080;28;93318;-87
2022/08/24 12:24:49;;;;;;;9.27;3.45;;;25.80;56.50;;;;;;4975634;28;95808;-86
2022/08/24 12:27:23;;;;;;;10.73;3.05;;;25.70;56.80;;;;;;4976726;28;92712;-86
2022/08/24 12:30:11;;;;;;;9.68;2.53;;;25.90;59.30;;;;;;4976354;28;91899;-87
2022/08/24 12:33:05;;;;;;;23.55;3.13;;;26.10;61.70;;;;;;4975695;28;92717;-88
2022/08/24 12:35:41;;;;;;;9.95;3.00;;;26.30;63.30;;;;;;4946181;28;93797;-87
2022/08/24 12:38:27;;;;;;;5.88;2.75;;;26.30;63.90;;;;;;4967488;28;93468;-86
2022/08/24 12:40:57;;;;;;;6.00;3.17;;;26.50;64.80;;;;;;4974248;28;93111;-86
2022/08/24 12:43:32;;;;;;;7.22;3.17;;;26.50;65.70;;;;;;4958699;28;92692;-86
2022/08/24 12:46:00;;;;;;;18.02;2.97;;;26.50;65.70;;;;;;4972182;28;92621;-87
2022/08/24 12:48:44;;;;;;;9.82;2.88;;;26.20;61.50;;;;;;4975977;28;92033;-87
2022/08/24 12:51:51;;;;;;;7.57;2.85;;;25.90;59.60;;;;;;4974905;28;95131;-86
2022/08/24 12:54:23;;;;;;;7.80;2.55;;;25.70;58.70;;;;;;4898293;28;99707;-86
2022/08/24 12:57:10;;;;;;;11.95;2.90;;;25.90;60.80;;;;;;4924283;28;92655;-87
2022/08/24 12:59:48;;;;;;;7.97;2.85;;;26.00;63.10;;;;;;4936074;28;92530;-87
2022/08/24 13:02:17;;;;;;;9.30;3.25;;;26.10;64.10;;;;;;4935943;28;92827;-87
2022/08/24 13:04:56;;;;;;;8.07;2.63;;;26.30;65.20;;;;;;4933204;28;94286;-87
2022/08/24 13:07:39;;;;;;;8.52;3.00;;;26.40;65.70;;;;;;4935334;28;94027;-86
2022/08/24 13:10:08;;;;;;;7.50;2.90;;;26.40;66.40;;;;;;4916507;28;91948;-85
2022/08/24 13:12:42;;;;;;;;;;;26.40;65.00;;;;;;4935598;28;92487;-86
2022/08/24 13:15:20;;;;;;;9.63;3.05;;;26.10;61.60;;;;;;4937046;28;93874;-86
2022/08/24 13:17:57;;;;;;;11.05;3.00;;;25.90;59.80;;;;;;4925232;28;95755;-85
2022/08/24 13:20:35;;;;;;;11.15;2.55;;;25.70;58.40;;;;;;4933317;28;91975;-86